createdAt,value
2017-11-29T00:02:17.429Z,2.37
2017-11-29T00:04:46.288Z,2.57
2017-11-29T00:07:15.167Z,2.60
2017-11-29T00:09:44.015Z,2.90
2017-11-29T00:12:12.855Z,2.97
2017-11-29T00:14:41.718Z,2.70
2017-11-29T00:17:10.563Z,2.40
2017-11-29T00:19:39.424Z,2.40
2017-11-29T00:22:08.308Z,2.33
2017-11-29T00:24:37.195Z,2.00
2017-11-29T00:27:06.040Z,2.57
2017-11-29T00:29:34.884Z,2.20
2017-11-29T00:32:03.740Z,2.60
2017-11-29T00:34:32.600Z,2.87
2017-11-29T00:37:01.465Z,2.67
2017-11-29T00:39:30.323Z,2.73
2017-11-29T00:41:59.199Z,3.17
2017-11-29T00:44:28.056Z,3.60
2017-11-29T00:46:56.932Z,3.30
2017-11-29T00:49:25.808Z,2.80
2017-11-29T00:51:54.659Z,2.57
2017-11-29T00:54:23.525Z,2.00
2017-11-29T00:56:52.376Z,3.00
2017-11-29T00:59:21.269Z,2.20
2017-11-29T01:01:50.119Z,2.40
2017-11-29T01:04:18.983Z,2.83
2017-11-29T01:06:47.851Z,2.90
2017-11-29T01:09:16.704Z,2.83
2017-11-29T01:11:45.568Z,3.40
2017-11-29T01:14:14.414Z,2.90
2017-11-29T01:16:43.291Z,3.17
2017-11-29T01:19:12.139Z,2.10
2017-11-29T01:21:40.998Z,2.40
2017-11-29T01:24:09.874Z,2.13
2017-11-29T01:26:38.824Z,2.60
2017-11-29T01:29:07.690Z,3.20
2017-11-29T01:31:36.559Z,2.37
2017-11-29T01:34:05.448Z,2.27
2017-11-29T01:36:34.315Z,2.20
2017-11-29T01:39:03.187Z,2.30
2017-11-29T01:41:32.039Z,3.10
2017-11-29T01:44:00.908Z,2.27
2017-11-29T01:46:29.773Z,2.20
2017-11-29T01:48:58.621Z,2.90
2017-11-29T01:51:27.493Z,2.67
2017-11-29T01:53:56.346Z,2.33
2017-11-29T01:56:25.391Z,3.10
2017-11-29T01:58:54.239Z,2.60
2017-11-29T02:01:23.602Z,2.20
2017-11-29T02:03:52.512Z,3.30
2017-11-29T02:06:26.385Z,2.87
2017-11-29T02:08:55.267Z,3.00
2017-11-29T02:11:24.120Z,3.47
2017-11-29T02:13:52.969Z,2.80
2017-11-29T02:16:21.864Z,3.27
2017-11-29T02:18:50.708Z,3.20
2017-11-29T02:21:19.613Z,4.20
2017-11-29T02:23:48.466Z,3.33
2017-11-29T02:26:17.317Z,3.90
2017-11-29T02:28:46.187Z,3.73
2017-11-29T02:31:15.043Z,3.27
2017-11-29T02:33:43.931Z,3.83
2017-11-29T02:36:12.780Z,4.63
2017-11-29T02:38:41.633Z,3.63
2017-11-29T02:41:16.465Z,3.80
2017-11-29T02:43:45.314Z,4.40
2017-11-29T02:46:14.179Z,3.47
2017-11-29T02:48:43.052Z,3.57
2017-11-29T02:51:11.929Z,3.90
2017-11-29T02:53:40.790Z,3.77
2017-11-29T02:56:09.650Z,3.20
2017-11-29T02:58:38.495Z,3.43
2017-11-29T03:01:07.352Z,3.33
2017-11-29T03:03:36.203Z,3.23
2017-11-29T03:06:05.087Z,3.20
2017-11-29T03:08:33.948Z,3.47
2017-11-29T03:11:02.792Z,3.53
2017-11-29T03:13:31.660Z,3.47
2017-11-29T03:16:00.500Z,3.50
2017-11-29T03:18:29.403Z,3.23
2017-11-29T03:23:33.526Z,2.47
2017-11-29T03:26:02.375Z,2.67
2017-11-29T03:28:31.220Z,3.50
2017-11-29T03:31:00.108Z,2.80
2017-11-29T03:33:28.968Z,3.60
2017-11-29T03:35:57.851Z,3.40
2017-11-29T03:38:26.707Z,3.00
2017-11-29T03:40:55.565Z,3.20
2017-11-29T03:43:24.460Z,3.70
2017-11-29T03:45:53.312Z,4.20
2017-11-29T03:48:22.198Z,3.33
2017-11-29T03:50:51.048Z,3.37
2017-11-29T03:53:19.940Z,4.00
2017-11-29T03:55:48.839Z,3.03
2017-11-29T03:58:17.689Z,3.10
2017-11-29T04:00:46.561Z,3.60
2017-11-29T04:03:15.403Z,3.80
2017-11-29T04:05:44.307Z,3.20
2017-11-29T04:08:13.153Z,2.67
2017-11-29T04:10:42.003Z,4.23
2017-11-29T04:13:10.861Z,4.07
2017-11-29T04:15:39.721Z,3.50
2017-11-29T04:18:08.583Z,3.20
2017-11-29T04:20:37.427Z,3.43
2017-11-29T04:23:06.319Z,3.77
2017-11-29T04:25:35.169Z,3.50
2017-11-29T04:28:04.020Z,3.23
2017-11-29T04:30:32.879Z,3.30
2017-11-29T04:33:01.725Z,3.80
2017-11-29T04:35:30.583Z,3.47
2017-11-29T04:37:59.432Z,3.80
2017-11-29T04:40:28.315Z,3.80
2017-11-29T04:42:57.186Z,3.07
2017-11-29T04:45:26.036Z,3.93
2017-11-29T04:47:54.914Z,3.50
2017-11-29T04:50:23.768Z,3.97
2017-11-29T04:52:52.828Z,4.10
2017-11-29T04:55:21.683Z,3.70
2017-11-29T04:57:50.539Z,3.67
2017-11-29T05:00:19.407Z,4.20
2017-11-29T05:02:48.263Z,4.30
2017-11-29T05:05:17.139Z,3.80
2017-11-29T05:07:46.010Z,3.40
2017-11-29T05:10:14.937Z,3.80
2017-11-29T05:12:43.784Z,3.40
2017-11-29T05:15:12.638Z,4.40
2017-11-29T05:17:41.492Z,3.67
2017-11-29T05:20:10.347Z,4.20
2017-11-29T05:22:39.630Z,3.83
2017-11-29T05:25:08.509Z,4.00
2017-11-29T05:27:37.393Z,4.03
2017-11-29T05:30:06.280Z,4.10
2017-11-29T05:32:35.148Z,4.10
2017-11-29T05:35:04.022Z,4.10
2017-11-29T05:37:32.885Z,4.30
2017-11-29T05:40:01.792Z,4.50
2017-11-29T05:42:30.639Z,5.45
2017-11-29T05:44:59.480Z,4.70
2017-11-29T05:47:28.346Z,5.07
2017-11-29T05:49:57.202Z,4.50
2017-11-29T05:52:26.093Z,4.47
2017-11-29T05:54:54.943Z,4.87
2017-11-29T05:57:23.791Z,4.87
2017-11-29T05:59:52.664Z,4.30
2017-11-29T06:02:21.527Z,3.97
2017-11-29T06:04:50.423Z,5.57
2017-11-29T06:07:19.416Z,4.80
2017-11-29T06:09:48.286Z,5.17
2017-11-29T06:12:17.169Z,5.80
2017-11-29T06:14:46.010Z,5.20
2017-11-29T06:17:14.911Z,5.80
2017-11-29T06:19:43.858Z,6.17
2017-11-29T06:22:12.726Z,5.53
2017-11-29T06:24:41.615Z,5.60
2017-11-29T06:27:10.470Z,5.90
2017-11-29T06:29:39.348Z,5.43
2017-11-29T06:32:08.200Z,6.90
2017-11-29T06:34:37.298Z,5.97
2017-11-29T06:37:06.156Z,7.00
2017-11-29T06:39:35.027Z,6.90
2017-11-29T06:42:03.891Z,6.63
2017-11-29T06:44:32.747Z,6.83
2017-11-29T06:47:01.620Z,6.43
2017-11-29T06:49:30.493Z,6.97
2017-11-29T06:51:59.339Z,6.90
2017-11-29T06:54:28.216Z,6.53
2017-11-29T06:56:57.077Z,7.40
2017-11-29T06:59:25.996Z,6.63
2017-11-29T07:01:54.849Z,7.00
2017-11-29T07:04:23.723Z,6.97
2017-11-29T07:06:52.585Z,7.13
2017-11-29T07:09:21.439Z,6.80
2017-11-29T07:11:50.307Z,7.40
2017-11-29T07:14:19.157Z,7.03
2017-11-29T07:16:48.055Z,7.17
2017-11-29T07:19:16.912Z,7.20
2017-11-29T07:21:45.788Z,6.40
2017-11-29T07:24:14.666Z,7.10
2017-11-29T07:26:43.522Z,6.80
2017-11-29T07:29:12.415Z,7.70
2017-11-29T07:31:41.272Z,8.50
2017-11-29T07:34:10.159Z,13.70
2017-11-29T07:36:39.040Z,8.93
2017-11-29T07:39:07.908Z,9.23
2017-11-29T07:41:36.857Z,7.60
2017-11-29T07:44:05.725Z,6.40
2017-11-29T07:46:34.583Z,6.87
2017-11-29T07:49:03.455Z,7.10
2017-11-29T07:51:32.303Z,6.50
2017-11-29T07:54:01.183Z,6.80
2017-11-29T07:56:30.038Z,5.70
2017-11-29T07:58:58.920Z,7.20
2017-11-29T08:01:27.789Z,6.47
2017-11-29T08:03:56.652Z,6.67
2017-11-29T08:06:25.539Z,6.37
2017-11-29T08:08:54.382Z,6.70
2017-11-29T08:11:23.231Z,6.47
2017-11-29T08:13:52.127Z,7.60
2017-11-29T08:16:20.989Z,6.43
2017-11-29T08:18:49.876Z,5.80
2017-11-29T08:21:18.757Z,6.50
2017-11-29T08:23:47.615Z,5.53
2017-11-29T08:26:16.511Z,5.83
2017-11-29T08:28:45.416Z,15.30
2017-11-29T08:31:14.282Z,7.03
2017-11-29T08:33:43.140Z,6.20
2017-11-29T08:36:12.007Z,7.40
2017-11-29T08:38:40.872Z,5.50
2017-11-29T08:41:09.763Z,6.40
2017-11-29T08:43:38.620Z,5.57
2017-11-29T08:46:07.589Z,6.90
2017-11-29T08:48:36.492Z,5.83
2017-11-29T08:51:05.372Z,6.20
2017-11-29T08:53:34.271Z,5.80
2017-11-29T08:56:03.136Z,5.90
2017-11-29T08:58:31.977Z,5.70
2017-11-29T09:01:00.848Z,5.00
2017-11-29T09:03:29.706Z,6.20
2017-11-29T09:05:58.613Z,6.47
2017-11-29T09:08:27.471Z,7.07
2017-11-29T09:10:56.342Z,5.60
2017-11-29T09:13:25.205Z,6.30
2017-11-29T09:15:54.064Z,6.60
2017-11-29T09:18:22.970Z,6.07
2017-11-29T09:20:51.825Z,5.83
2017-11-29T09:23:20.684Z,5.80
2017-11-29T09:25:49.568Z,4.60
2017-11-29T09:28:18.451Z,5.23
2017-11-29T09:30:47.435Z,5.13
2017-11-29T09:33:16.287Z,6.37
2017-11-29T09:35:45.159Z,5.80
2017-11-29T09:38:14.024Z,4.93
2017-11-29T09:40:42.888Z,5.70
2017-11-29T09:43:11.768Z,5.80
2017-11-29T09:45:40.642Z,5.50
2017-11-29T09:48:09.518Z,6.00
2017-11-29T09:50:38.379Z,4.83
2017-11-29T09:53:07.227Z,4.63
2017-11-29T09:55:36.114Z,4.60
2017-11-29T09:58:04.982Z,4.90
2017-11-29T10:00:33.836Z,5.27
2017-11-29T10:03:02.700Z,7.93
2017-11-29T10:05:31.561Z,5.67
2017-11-29T10:08:00.448Z,4.87
2017-11-29T10:10:29.298Z,4.80
2017-11-29T10:12:58.186Z,3.50
2017-11-29T10:15:27.056Z,3.00
2017-11-29T10:17:55.911Z,4.00
2017-11-29T10:20:24.773Z,3.87
2017-11-29T10:22:53.627Z,3.67
2017-11-29T10:25:22.519Z,3.83
2017-11-29T10:27:51.367Z,4.67
2017-11-29T10:30:20.207Z,4.33
2017-11-29T10:32:49.100Z,4.17
2017-11-29T10:35:17.954Z,3.70
2017-11-29T10:37:47.028Z,5.13
2017-11-29T10:40:15.894Z,3.93
2017-11-29T10:42:44.757Z,3.73
2017-11-29T10:45:13.648Z,4.03
2017-11-29T10:47:42.497Z,3.73
2017-11-29T10:50:11.385Z,3.80
2017-11-29T10:52:40.245Z,4.00
2017-11-29T10:55:09.144Z,4.07
2017-11-29T10:57:38.018Z,3.43
2017-11-29T11:00:06.879Z,4.77
2017-11-29T11:02:35.774Z,3.87
2017-11-29T11:05:04.648Z,4.00
2017-11-29T11:07:33.497Z,4.23
2017-11-29T11:10:02.359Z,3.77
2017-11-29T11:12:31.200Z,4.20
2017-11-29T11:15:00.079Z,3.97
2017-11-29T11:17:28.948Z,3.70
2017-11-29T11:19:57.835Z,3.80
2017-11-29T11:22:26.683Z,4.07
2017-11-29T11:24:55.537Z,3.80
2017-11-29T11:27:24.405Z,4.30
2017-11-29T11:29:53.277Z,8.97
2017-11-29T11:32:22.391Z,7.10
2017-11-29T11:34:51.254Z,4.60
2017-11-29T11:37:20.122Z,4.57
2017-11-29T11:39:48.987Z,4.40
2017-11-29T11:42:17.852Z,4.30
2017-11-29T11:44:46.746Z,4.27
2017-11-29T11:47:15.599Z,5.30
2017-11-29T11:49:44.447Z,4.13
2017-11-29T11:52:13.313Z,5.40
2017-11-29T11:54:42.156Z,4.27
2017-11-29T11:57:11.039Z,4.30
2017-11-29T11:59:39.886Z,4.50
2017-11-29T12:02:08.751Z,4.23
2017-11-29T12:04:37.629Z,3.83
2017-11-29T12:07:06.492Z,4.77
2017-11-29T12:09:35.361Z,4.10
2017-11-29T12:12:04.205Z,4.40
2017-11-29T12:14:33.308Z,3.83
2017-11-29T12:17:02.170Z,5.07
2017-11-29T12:19:31.029Z,5.60
2017-11-29T12:21:59.899Z,4.33
2017-11-29T12:24:28.743Z,7.70
2017-11-29T12:26:57.627Z,5.13
2017-11-29T12:29:26.480Z,4.57
2017-11-29T12:31:55.420Z,5.53
2017-11-29T12:34:24.287Z,4.83
2017-11-29T12:36:53.131Z,5.03
2017-11-29T12:39:22.027Z,6.07
2017-11-29T12:41:50.904Z,6.70
2017-11-29T12:44:19.760Z,5.80
2017-11-29T12:46:48.651Z,5.13
2017-11-29T12:49:23.461Z,5.10
2017-11-29T12:51:52.479Z,5.20
2017-11-29T12:54:21.347Z,5.00
2017-11-29T12:56:50.207Z,3.90
2017-11-29T12:59:19.077Z,5.50
2017-11-29T13:01:47.930Z,5.13
2017-11-29T13:04:16.849Z,5.90
2017-11-29T13:06:45.813Z,7.47
2017-11-29T13:09:14.660Z,6.70
2017-11-29T13:11:43.532Z,5.90
2017-11-29T13:14:12.417Z,5.60
2017-11-29T13:16:41.480Z,5.40
2017-11-29T13:19:10.327Z,5.50
2017-11-29T13:21:39.174Z,5.50
2017-11-29T13:24:08.056Z,5.57
2017-11-29T13:26:36.927Z,6.40
2017-11-29T13:29:05.829Z,6.73
2017-11-29T13:31:34.676Z,5.47
2017-11-29T13:34:03.519Z,5.40
2017-11-29T13:36:32.399Z,5.77
2017-11-29T13:39:01.239Z,5.90
2017-11-29T13:41:30.238Z,5.70
2017-11-29T13:43:59.100Z,6.60
2017-11-29T13:46:27.960Z,5.37
2017-11-29T13:48:56.831Z,4.73
2017-11-29T13:51:25.684Z,5.20
2017-11-29T13:53:54.552Z,5.43
2017-11-29T13:56:23.430Z,6.50
2017-11-29T13:58:52.304Z,5.90
2017-11-29T14:01:21.162Z,5.67
2017-11-29T14:03:50.156Z,6.10
2017-11-29T14:06:19.013Z,5.80
2017-11-29T14:08:47.859Z,6.73
2017-11-29T14:11:16.721Z,5.60
2017-11-29T14:13:45.580Z,6.93
2017-11-29T14:16:14.462Z,6.23
2017-11-29T14:18:43.309Z,6.70
2017-11-29T14:21:12.183Z,6.57
2017-11-29T14:23:41.042Z,7.40
2017-11-29T14:26:09.875Z,7.20
2017-11-29T14:28:38.762Z,6.57
2017-11-29T14:31:07.625Z,8.20
2017-11-29T14:33:36.486Z,9.70
2017-11-29T14:36:05.343Z,7.77
2017-11-29T14:38:34.208Z,7.03
2017-11-29T14:41:03.087Z,7.23
2017-11-29T14:43:31.945Z,7.87
2017-11-29T14:46:00.787Z,8.00
2017-11-29T14:48:29.652Z,7.90
2017-11-29T14:50:58.513Z,8.00
2017-11-29T14:53:27.499Z,9.07
2017-11-29T14:55:56.351Z,8.10
2017-11-29T14:58:25.216Z,8.80
2017-11-29T15:00:54.099Z,10.37
2017-11-29T15:03:22.955Z,9.50
2017-11-29T15:05:52.087Z,9.00
2017-11-29T15:08:20.951Z,10.77
2017-11-29T15:10:49.803Z,10.33
2017-11-29T15:13:18.688Z,9.73
2017-11-29T15:15:47.560Z,9.50
2017-11-29T15:18:16.432Z,10.87
2017-11-29T15:20:45.370Z,9.73
2017-11-29T15:23:14.341Z,10.20
2017-11-29T15:25:43.201Z,9.83
2017-11-29T15:28:12.082Z,9.43
2017-11-29T15:30:40.957Z,9.50
2017-11-29T15:33:09.847Z,11.57
2017-11-29T15:35:38.724Z,10.90
2017-11-29T15:38:07.572Z,10.33
2017-11-29T15:40:36.653Z,9.67
2017-11-29T15:43:05.521Z,9.97
2017-11-29T15:45:34.376Z,9.60
2017-11-29T15:48:03.276Z,9.00
2017-11-29T15:50:32.141Z,7.77
2017-11-29T15:53:01.056Z,7.30
2017-11-29T15:55:29.908Z,9.13
2017-11-29T15:57:58.754Z,7.67
2017-11-29T16:00:28.252Z,14.30
2017-11-29T16:02:57.116Z,9.37
2017-11-29T16:05:26.007Z,9.23
2017-11-29T16:07:54.859Z,8.47
2017-11-29T16:10:23.800Z,8.00
2017-11-29T16:12:52.669Z,9.40
2017-11-29T16:15:21.597Z,10.27
2017-11-29T16:17:50.527Z,8.37
2017-11-29T16:20:19.372Z,8.20
2017-11-29T16:22:48.224Z,11.10
2017-11-29T16:25:17.117Z,13.70
2017-11-29T16:27:45.985Z,10.17
2017-11-29T16:30:14.919Z,7.93
2017-11-29T16:32:43.776Z,7.80
2017-11-29T16:35:12.640Z,7.03
2017-11-29T16:37:41.520Z,7.77
2017-11-29T16:40:10.366Z,7.50
2017-11-29T16:42:39.250Z,8.53
2017-11-29T16:45:08.110Z,8.27
2017-11-29T16:47:36.976Z,8.20
2017-11-29T16:50:05.849Z,8.43
2017-11-29T16:52:34.711Z,11.43
2017-11-29T16:55:03.624Z,12.00
2017-11-29T16:57:32.525Z,11.50
2017-11-29T17:00:01.388Z,9.70
2017-11-29T17:02:30.286Z,8.67
2017-11-29T17:04:59.128Z,8.43
2017-11-29T17:07:28.047Z,8.43
2017-11-29T17:09:56.886Z,8.40
2017-11-29T17:12:25.747Z,7.70
2017-11-29T17:14:54.644Z,7.97
2017-11-29T17:17:23.547Z,7.90
2017-11-29T17:19:52.615Z,7.70
2017-11-29T17:22:21.472Z,8.70
2017-11-29T17:24:50.323Z,9.63
2017-11-29T17:27:19.187Z,8.90
2017-11-29T17:29:53.862Z,8.80
2017-11-29T17:32:22.736Z,9.40
2017-11-29T17:34:51.595Z,8.73
2017-11-29T17:37:20.460Z,9.33
2017-11-29T17:39:49.383Z,9.70
2017-11-29T17:42:18.303Z,10.27
2017-11-29T17:44:47.158Z,10.87
2017-11-29T17:47:16.039Z,11.60
2017-11-29T17:49:44.913Z,10.53
2017-11-29T17:52:13.788Z,11.13
2017-11-29T17:54:42.657Z,11.17
2017-11-29T17:57:11.505Z,9.93
2017-11-29T17:59:40.373Z,10.37
2017-11-29T18:02:09.317Z,9.93
2017-11-29T18:04:38.168Z,10.23
2017-11-29T18:07:07.019Z,12.43
2017-11-29T18:09:36.052Z,11.07
2017-11-29T18:12:04.922Z,10.93
2017-11-29T18:14:33.775Z,12.27
2017-11-29T18:17:02.659Z,10.53
2017-11-29T18:19:31.536Z,10.60
2017-11-29T18:22:00.397Z,12.07
2017-11-29T18:24:29.319Z,10.80
2017-11-29T18:26:58.300Z,10.63
2017-11-29T18:29:27.189Z,11.47
2017-11-29T18:31:56.050Z,12.33
2017-11-29T18:34:25.033Z,12.13
2017-11-29T18:36:53.883Z,12.47
2017-11-29T18:39:22.748Z,13.73
2017-11-29T18:41:51.615Z,12.23
2017-11-29T18:44:20.467Z,11.77
2017-11-29T18:46:49.463Z,11.93
2017-11-29T18:49:18.470Z,14.63
2017-11-29T18:51:47.352Z,11.60
2017-11-29T18:54:16.287Z,11.83
2017-11-29T18:56:45.168Z,11.83
2017-11-29T18:59:14.100Z,10.53
2017-11-29T19:01:43.222Z,11.30
2017-11-29T19:04:12.094Z,11.53
2017-11-29T19:06:41.007Z,11.90
2017-11-29T19:09:09.909Z,11.47
2017-11-29T19:11:38.994Z,11.77
2017-11-29T19:14:07.855Z,10.63
2017-11-29T19:16:36.702Z,9.67
2017-11-29T19:19:05.690Z,12.73
2017-11-29T19:21:34.560Z,11.93
2017-11-29T19:24:03.425Z,11.27
2017-11-29T19:26:32.285Z,12.30
2017-11-29T19:29:01.170Z,10.93
2017-11-29T19:31:30.023Z,13.13
2017-11-29T19:33:58.886Z,12.13
2017-11-29T19:36:27.743Z,12.27
2017-11-29T19:38:56.607Z,11.83
2017-11-29T19:41:26.377Z,12.17
2017-11-29T19:43:55.236Z,11.67
2017-11-29T19:46:24.103Z,14.52
2017-11-29T19:48:53.497Z,12.43
2017-11-29T19:51:22.464Z,12.90
2017-11-29T19:53:51.438Z,13.00
2017-11-29T19:56:20.290Z,13.50
2017-11-29T19:58:49.422Z,13.30
2017-11-29T20:01:18.518Z,14.60
2017-11-29T20:03:47.427Z,14.50
2017-11-29T20:06:16.279Z,15.35
2017-11-29T20:08:45.118Z,14.13
2017-11-29T20:11:13.987Z,15.70
2017-11-29T20:13:42.840Z,15.40
2017-11-29T20:16:11.767Z,15.83
2017-11-29T20:18:40.615Z,14.60
2017-11-29T20:21:09.493Z,33.37
2017-11-29T20:23:38.348Z,16.90
2017-11-29T20:26:07.200Z,15.80
2017-11-29T20:28:36.064Z,14.40
2017-11-29T20:31:04.909Z,14.20
2017-11-29T20:33:33.856Z,14.00
2017-11-29T20:36:02.702Z,13.60
2017-11-29T20:38:31.548Z,14.67
2017-11-29T20:41:00.421Z,14.00
2017-11-29T20:43:29.275Z,15.60
2017-11-29T20:45:58.354Z,15.27
2017-11-29T20:48:27.232Z,15.67
2017-11-29T20:50:56.523Z,15.33
2017-11-29T20:53:25.388Z,15.00
2017-11-29T20:55:54.291Z,16.47
2017-11-29T20:58:23.378Z,14.33
2017-11-29T21:00:52.234Z,14.63
2017-11-29T21:03:21.112Z,15.40
2017-11-29T21:05:49.989Z,14.80
2017-11-29T21:08:18.924Z,13.57
2017-11-29T21:10:47.907Z,13.67
2017-11-29T21:13:16.768Z,14.20
2017-11-29T21:15:45.620Z,14.07
2017-11-29T21:18:14.483Z,12.43
2017-11-29T21:20:43.335Z,14.37
2017-11-29T21:23:12.231Z,14.97
2017-11-29T21:25:41.093Z,14.90
2017-11-29T21:28:09.949Z,13.63
2017-11-29T21:30:38.828Z,14.60
2017-11-29T21:33:07.685Z,14.80
2017-11-29T21:35:36.580Z,14.50
2017-11-29T21:38:05.439Z,12.93
2017-11-29T21:40:34.279Z,15.30
2017-11-29T21:43:03.134Z,14.87
2017-11-29T21:45:32.075Z,13.20
2017-11-29T21:48:01.109Z,14.87
2017-11-29T21:50:29.959Z,14.00
2017-11-29T21:52:58.803Z,14.40
2017-11-29T21:55:27.674Z,14.73
2017-11-29T21:57:56.527Z,14.10
2017-11-29T22:00:25.422Z,12.70
2017-11-29T22:02:54.268Z,12.53
2017-11-29T22:05:23.140Z,14.70
2017-11-29T22:07:52.002Z,14.60
2017-11-29T22:10:20.879Z,13.37
2017-11-29T22:12:49.737Z,13.60
2017-11-29T22:15:18.627Z,14.30
2017-11-29T22:17:47.468Z,13.87
2017-11-29T22:20:16.316Z,15.30
2017-11-29T22:22:45.187Z,15.20
2017-11-29T22:25:14.052Z,17.17
2017-11-29T22:27:42.916Z,16.70
2017-11-29T22:30:11.771Z,18.27
2017-11-29T22:32:40.707Z,20.83
2017-11-29T22:35:09.555Z,17.80
2017-11-29T22:37:38.404Z,15.87
2017-11-29T22:40:07.275Z,15.77
2017-11-29T22:42:36.119Z,14.60
2017-11-29T22:45:05.017Z,15.60
2017-11-29T22:47:33.863Z,16.80
2017-11-29T22:50:02.716Z,16.23
2017-11-29T22:52:31.584Z,15.50
2017-11-29T22:55:00.443Z,16.80
2017-11-29T22:57:29.313Z,16.23
2017-11-29T22:59:58.168Z,16.60
2017-11-29T23:02:27.222Z,17.10
2017-11-29T23:04:56.068Z,17.20
2017-11-29T23:07:24.912Z,16.80
2017-11-29T23:09:53.778Z,16.20
2017-11-29T23:12:22.627Z,17.63
2017-11-29T23:14:51.513Z,16.40
2017-11-29T23:17:20.372Z,16.47
2017-11-29T23:19:49.236Z,18.40
2017-11-29T23:22:18.091Z,16.73
2017-11-29T23:24:46.953Z,18.33
2017-11-29T23:27:15.834Z,16.93
2017-11-29T23:29:44.747Z,18.90
2017-11-29T23:32:13.607Z,17.30
2017-11-29T23:34:42.457Z,15.30
2017-11-29T23:37:11.356Z,17.17
2017-11-29T23:39:40.203Z,16.47
2017-11-29T23:42:09.104Z,15.07
2017-11-29T23:44:37.988Z,15.47
2017-11-29T23:47:06.834Z,16.60
2017-11-29T23:49:35.702Z,14.97
2017-11-29T23:52:04.553Z,15.50
2017-11-29T23:54:33.427Z,14.20
2017-11-29T23:57:02.295Z,14.20
2017-11-29T23:59:31.151Z,15.47
